Terminal Aerodrome Forecast
Issued by NWS

Home | Current Version | Previous Version | Text Only | Print | Product List | Glossary On
Versions: 1 2 3 4 5 6 7 8 9 10 11 12 13 14 15
000
FTUS41 KBTV 202334
TAFMPV
TAF
KMPV 202334Z 2100/2124 31009KT P6SM FEW035
     FM210100 31007KT P6SM FEW050
     FM210300 00000KT P6SM SKC
     FM211400 30006KT P6SM SKC=

USA.gov is the U.S. government's official web portal to all federal, state and local government web resources and services.